This is the latest recevied weather packets stored in our database for station/object KG5CK-1. If no packets are shown the sender has not sent any weather packets the latest 10 day(s).
| Time | Temp. | Humidity | Pressure | Rain* | Wind** | Luminosity | Snow |
|---|---|---|---|---|---|---|---|
| 1778081283 | 12.22° C | 85% | 1011.9 hPa | 0 mm | 1.79 m/s, 349° | - | - |
| 1778081223 | 12.22° C | 85% | 1011.9 hPa | 0 mm | 1.79 m/s, 349° | - | - |
| 1778081162 | 12.22° C | 85% | 1011.9 hPa | 0 mm | 1.79 m/s, 349° | - | - |
| 1778081103 | 12.22° C | 85% | 1011.5 hPa | 0 mm | 0.45 m/s, 53° | - | - |
| 1778081042 | 12.22° C | 85% | 1011.5 hPa | 0 mm | 0.45 m/s, 53° | - | - |
| 1778080983 | 12.22° C | 85% | 1011.5 hPa | 0 mm | 0.45 m/s, 53° | - | - |
| 1778080863 | 12.22° C | 85% | 1011.5 hPa | 0 mm | 0.45 m/s, 53° | - | - |
| 1778080743 | 12.22° C | 85% | 1011.2 hPa | 0 mm | 0.89 m/s, 34° | - | - |
| 1778080683 | 12.22° C | 85% | 1011.2 hPa | 0 mm | 0.89 m/s, 34° | - | - |
| 1778080623 | 12.22° C | 85% | 1011.2 hPa | 0 mm | 0.89 m/s, 34° | - | - |
| 1778080562 | 12.22° C | 85% | 1011.2 hPa | 0 mm | 0.89 m/s, 34° | - | - |
| 1778080503 | 12.22° C | 85% | 1011.1 hPa | 0 mm | 0.45 m/s, 36° | - | - |
| 1778080443 | 12.22° C | 85% | 1011.1 hPa | 0 mm | 0.45 m/s, 36° | - | - |
| 1778080383 | 12.22° C | 85% | 1011.1 hPa | 0 mm | 0.45 m/s, 36° | - | - |
| 1778080323 | 12.22° C | 85% | 1011.1 hPa | 0 mm | 0.45 m/s, 36° | - | - |
| 1778080263 | 12.22° C | 85% | 1011.1 hPa | 0 mm | 0.45 m/s, 36° | - | - |
| 1778080203 | 12.22° C | 84% | 1010.8 hPa | 0 mm | 1.34 m/s, 52° | - | - |
| 1778080143 | 12.22° C | 84% | 1010.8 hPa | 0 mm | 1.34 m/s, 52° | - | - |
| 1778080083 | 12.22° C | 84% | 1010.8 hPa | 0 mm | 1.34 m/s, 52° | - | - |
| 1778080023 | 12.22° C | 84% | 1010.8 hPa | 0 mm | 1.34 m/s, 52° | - | - |
| 1778079963 | 12.22° C | 84% | 1010.8 hPa | 0 mm | 1.34 m/s, 52° | - | - |
| 1778079903 | 12.22° C | 84% | 1010.1 hPa | 0 mm | 1.79 m/s, 0° | - | - |
| 1778079843 | 12.22° C | 84% | 1010.1 hPa | 0 mm | 1.79 m/s, 0° | - | - |
| 1778079722 | 12.22° C | 84% | 1010.1 hPa | 0 mm | 1.79 m/s, 0° | - | - |
| 1778079663 | 12.22° C | 84% | 1010.1 hPa | 0 mm | 1.79 m/s, 0° | - | - |
* Rain latest hour (hover to see other rain measurements)
** Current wind speed in m/s (hover to see current wind gust speed)